sensor_id;sensor_type;location;lat;lon;timestamp;P1;durP1;ratioP1;P2;durP2;ratioP2
1765;SDS011;880;52.452;8.656;2023-03-20T00:01:58;37.40;;;20.42;;
1765;SDS011;880;52.452;8.656;2023-03-20T00:04:25;27.65;;;16.00;;
1765;SDS011;880;52.452;8.656;2023-03-20T00:06:52;32.55;;;16.95;;
1765;SDS011;880;52.452;8.656;2023-03-20T00:09:19;34.72;;;16.90;;
1765;SDS011;880;52.452;8.656;2023-03-20T00:11:47;27.23;;;15.65;;
1765;SDS011;880;52.452;8.656;2023-03-20T00:16:46;31.63;;;17.35;;
1765;SDS011;880;52.452;8.656;2023-03-20T00:21:49;33.92;;;16.50;;
1765;SDS011;880;52.452;8.656;2023-03-20T00:24:17;39.17;;;18.05;;
1765;SDS011;880;52.452;8.656;2023-03-20T00:26:45;31.27;;;16.42;;
1765;SDS011;880;52.452;8.656;2023-03-20T00:29:21;31.38;;;16.48;;
1765;SDS011;880;52.452;8.656;2023-03-20T00:31:52;35.35;;;18.77;;
1765;SDS011;880;52.452;8.656;2023-03-20T00:34:21;32.60;;;17.27;;
1765;SDS011;880;52.452;8.656;2023-03-20T00:36:56;32.40;;;16.45;;
1765;SDS011;880;52.452;8.656;2023-03-20T00:39:23;35.22;;;17.38;;
1765;SDS011;880;52.452;8.656;2023-03-20T00:41:50;36.28;;;17.23;;
1765;SDS011;880;52.452;8.656;2023-03-20T00:44:35;31.85;;;16.77;;
1765;SDS011;880;52.452;8.656;2023-03-20T00:47:22;35.15;;;17.08;;
1765;SDS011;880;52.452;8.656;2023-03-20T00:49:50;30.05;;;16.15;;
1765;SDS011;880;52.452;8.656;2023-03-20T00:52:20;36.85;;;17.52;;
1765;SDS011;880;52.452;8.656;2023-03-20T00:57:23;33.15;;;17.52;;
1765;SDS011;880;52.452;8.656;2023-03-20T01:00:06;35.22;;;17.20;;
1765;SDS011;880;52.452;8.656;2023-03-20T01:02:54;33.03;;;17.50;;
1765;SDS011;880;52.452;8.656;2023-03-20T01:05:23;35.20;;;17.23;;
1765;SDS011;880;52.452;8.656;2023-03-20T01:07:53;31.83;;;16.85;;
1765;SDS011;880;52.452;8.656;2023-03-20T01:10:21;31.58;;;17.02;;
1765;SDS011;880;52.452;8.656;2023-03-20T01:12:53;36.95;;;17.67;;
1765;SDS011;880;52.452;8.656;2023-03-20T01:15:24;29.85;;;16.77;;
1765;SDS011;880;52.452;8.656;2023-03-20T01:17:57;35.97;;;16.75;;
1765;SDS011;880;52.452;8.656;2023-03-20T01:20:25;40.00;;;18.80;;
1765;SDS011;880;52.452;8.656;2023-03-20T01:22:55;31.83;;;17.05;;
1765;SDS011;880;52.452;8.656;2023-03-20T01:25:22;34.33;;;18.42;;
1765;SDS011;880;52.452;8.656;2023-03-20T01:27:50;28.08;;;15.68;;
1765;SDS011;880;52.452;8.656;2023-03-20T01:30:24;33.13;;;17.63;;
1765;SDS011;880;52.452;8.656;2023-03-20T01:32:55;39.42;;;17.73;;
1765;SDS011;880;52.452;8.656;2023-03-20T01:35:23;39.45;;;19.00;;
1765;SDS011;880;52.452;8.656;2023-03-20T01:37:54;39.95;;;19.58;;
1765;SDS011;880;52.452;8.656;2023-03-20T01:40:31;39.10;;;19.40;;
1765;SDS011;880;52.452;8.656;2023-03-20T01:43:09;40.88;;;17.77;;
1765;SDS011;880;52.452;8.656;2023-03-20T01:46:28;40.28;;;18.50;;
1765;SDS011;880;52.452;8.656;2023-03-20T01:51:20;36.40;;;17.25;;
1765;SDS011;880;52.452;8.656;2023-03-20T01:53:52;36.67;;;17.70;;
1765;SDS011;880;52.452;8.656;2023-03-20T01:56:29;39.60;;;18.63;;
1765;SDS011;880;52.452;8.656;2023-03-20T01:59:12;38.85;;;18.65;;
1765;SDS011;880;52.452;8.656;2023-03-20T02:01:47;37.17;;;17.80;;
1765;SDS011;880;52.452;8.656;2023-03-20T02:04:17;36.50;;;16.92;;
1765;SDS011;880;52.452;8.656;2023-03-20T02:06:56;41.25;;;17.88;;
1765;SDS011;880;52.452;8.656;2023-03-20T02:09:39;37.40;;;18.48;;
1765;SDS011;880;52.452;8.656;2023-03-20T02:12:11;43.05;;;18.75;;
1765;SDS011;880;52.452;8.656;2023-03-20T02:14:39;39.72;;;17.50;;
1765;SDS011;880;52.452;8.656;2023-03-20T02:17:22;40.47;;;20.75;;
1765;SDS011;880;52.452;8.656;2023-03-20T02:23:23;38.15;;;16.95;;
1765;SDS011;880;52.452;8.656;2023-03-20T02:26:24;36.70;;;16.50;;
1765;SDS011;880;52.452;8.656;2023-03-20T02:39:42;37.10;;;17.70;;
1765;SDS011;880;52.452;8.656;2023-03-20T02:48:55;41.40;;;19.77;;
1765;SDS011;880;52.452;8.656;2023-03-20T02:57:15;45.13;;;19.17;;
1765;SDS011;880;52.452;8.656;2023-03-20T03:00:00;39.72;;;16.75;;
1765;SDS011;880;52.452;8.656;2023-03-20T03:02:38;50.25;;;20.25;;
1765;SDS011;880;52.452;8.656;2023-03-20T03:05:15;47.38;;;18.65;;
1765;SDS011;880;52.452;8.656;2023-03-20T03:07:49;45.17;;;19.50;;
1765;SDS011;880;52.452;8.656;2023-03-20T03:10:25;50.22;;;20.65;;
1765;SDS011;880;52.452;8.656;2023-03-20T03:12:59;48.20;;;18.90;;
1765;SDS011;880;52.452;8.656;2023-03-20T03:15:30;46.33;;;19.55;;
1765;SDS011;880;52.452;8.656;2023-03-20T03:18:01;46.13;;;17.63;;
1765;SDS011;880;52.452;8.656;2023-03-20T03:20:34;42.85;;;17.65;;
1765;SDS011;880;52.452;8.656;2023-03-20T03:23:04;45.92;;;17.65;;
1765;SDS011;880;52.452;8.656;2023-03-20T03:25:33;49.22;;;19.00;;
1765;SDS011;880;52.452;8.656;2023-03-20T03:28:07;46.13;;;18.63;;
1765;SDS011;880;52.452;8.656;2023-03-20T03:30:54;49.53;;;20.20;;
1765;SDS011;880;52.452;8.656;2023-03-20T03:33:23;41.88;;;18.38;;
1765;SDS011;880;52.452;8.656;2023-03-20T03:36:07;36.80;;;16.00;;
1765;SDS011;880;52.452;8.656;2023-03-20T03:41:53;47.25;;;17.83;;
1765;SDS011;880;52.452;8.656;2023-03-20T03:44:36;45.72;;;19.20;;
1765;SDS011;880;52.452;8.656;2023-03-20T03:50:34;49.10;;;19.05;;
1765;SDS011;880;52.452;8.656;2023-03-20T03:53:16;47.20;;;18.48;;
1765;SDS011;880;52.452;8.656;2023-03-20T03:55:49;56.58;;;21.70;;
1765;SDS011;880;52.452;8.656;2023-03-20T03:58:27;46.05;;;18.88;;
1765;SDS011;880;52.452;8.656;2023-03-20T04:01:23;40.17;;;19.58;;
1765;SDS011;880;52.452;8.656;2023-03-20T04:03:53;53.63;;;22.00;;
1765;SDS011;880;52.452;8.656;2023-03-20T04:06:26;49.08;;;20.95;;
1765;SDS011;880;52.452;8.656;2023-03-20T04:08:53;26.27;;;14.30;;
1765;SDS011;880;52.452;8.656;2023-03-20T04:11:21;62.00;;;22.95;;
1765;SDS011;880;52.452;8.656;2023-03-20T04:13:51;49.50;;;22.45;;
1765;SDS011;880;52.452;8.656;2023-03-20T04:16:21;51.95;;;21.55;;
1765;SDS011;880;52.452;8.656;2023-03-20T04:18:50;49.05;;;19.27;;
1765;SDS011;880;52.452;8.656;2023-03-20T04:21:17;46.42;;;22.67;;
1765;SDS011;880;52.452;8.656;2023-03-20T04:23:45;49.10;;;21.38;;
1765;SDS011;880;52.452;8.656;2023-03-20T04:26:12;46.15;;;20.00;;
1765;SDS011;880;52.452;8.656;2023-03-20T04:28:39;51.97;;;23.23;;
1765;SDS011;880;52.452;8.656;2023-03-20T04:31:19;48.33;;;21.95;;
1765;SDS011;880;52.452;8.656;2023-03-20T04:34:07;49.30;;;22.15;;
1765;SDS011;880;52.452;8.656;2023-03-20T04:36:34;52.95;;;21.73;;
1765;SDS011;880;52.452;8.656;2023-03-20T04:39:04;46.50;;;22.52;;
1765;SDS011;880;52.452;8.656;2023-03-20T04:41:32;40.25;;;19.73;;
1765;SDS011;880;52.452;8.656;2023-03-20T04:43:59;42.25;;;19.40;;
1765;SDS011;880;52.452;8.656;2023-03-20T04:46:26;38.97;;;18.30;;
1765;SDS011;880;52.452;8.656;2023-03-20T04:48:53;51.95;;;21.80;;
1765;SDS011;880;52.452;8.656;2023-03-20T04:51:24;54.25;;;27.20;;
1765;SDS011;880;52.452;8.656;2023-03-20T04:53:52;51.78;;;23.80;;
1765;SDS011;880;52.452;8.656;2023-03-20T04:56:19;54.83;;;23.15;;
1765;SDS011;880;52.452;8.656;2023-03-20T04:58:47;52.47;;;23.23;;
1765;SDS011;880;52.452;8.656;2023-03-20T05:01:17;46.95;;;20.42;;
1765;SDS011;880;52.452;8.656;2023-03-20T05:03:44;36.40;;;18.88;;
1765;SDS011;880;52.452;8.656;2023-03-20T05:06:12;47.83;;;25.20;;
1765;SDS011;880;52.452;8.656;2023-03-20T05:08:41;50.97;;;21.23;;
1765;SDS011;880;52.452;8.656;2023-03-20T05:11:08;52.88;;;24.70;;
1765;SDS011;880;52.452;8.656;2023-03-20T05:13:58;50.95;;;24.60;;
1765;SDS011;880;52.452;8.656;2023-03-20T05:16:39;48.67;;;23.92;;
1765;SDS011;880;52.452;8.656;2023-03-20T05:19:39;42.83;;;19.77;;
1765;SDS011;880;52.452;8.656;2023-03-20T05:22:17;48.97;;;23.33;;
1765;SDS011;880;52.452;8.656;2023-03-20T05:24:54;50.55;;;23.17;;
1765;SDS011;880;52.452;8.656;2023-03-20T05:27:45;50.40;;;22.85;;
1765;SDS011;880;52.452;8.656;2023-03-20T05:30:31;49.95;;;22.92;;
1765;SDS011;880;52.452;8.656;2023-03-20T05:33:31;42.50;;;21.48;;
1765;SDS011;880;52.452;8.656;2023-03-20T05:36:07;53.08;;;23.35;;
1765;SDS011;880;52.452;8.656;2023-03-20T05:38:49;43.75;;;21.33;;
1765;SDS011;880;52.452;8.656;2023-03-20T05:41:30;38.67;;;21.63;;
1765;SDS011;880;52.452;8.656;2023-03-20T05:44:28;48.63;;;24.73;;
1765;SDS011;880;52.452;8.656;2023-03-20T05:47:16;49.63;;;22.73;;
1765;SDS011;880;52.452;8.656;2023-03-20T05:49:55;45.92;;;22.98;;
1765;SDS011;880;52.452;8.656;2023-03-20T05:52:46;26.05;;;15.40;;
1765;SDS011;880;52.452;8.656;2023-03-20T05:55:37;37.35;;;19.30;;
1765;SDS011;880;52.452;8.656;2023-03-20T05:58:31;27.70;;;16.27;;
1765;SDS011;880;52.452;8.656;2023-03-20T06:01:21;37.25;;;18.08;;
1765;SDS011;880;52.452;8.656;2023-03-20T06:03:57;39.20;;;19.38;;
1765;SDS011;880;52.452;8.656;2023-03-20T06:06:46;27.90;;;18.30;;
1765;SDS011;880;52.452;8.656;2023-03-20T06:09:13;31.63;;;18.80;;
1765;SDS011;880;52.452;8.656;2023-03-20T06:11:41;31.00;;;20.17;;
1765;SDS011;880;52.452;8.656;2023-03-20T06:14:08;30.63;;;19.42;;
1765;SDS011;880;52.452;8.656;2023-03-20T06:16:38;42.53;;;20.05;;
1765;SDS011;880;52.452;8.656;2023-03-20T06:19:05;30.02;;;18.55;;
1765;SDS011;880;52.452;8.656;2023-03-20T06:21:35;32.55;;;19.00;;
1765;SDS011;880;52.452;8.656;2023-03-20T06:24:03;28.88;;;17.42;;
1765;SDS011;880;52.452;8.656;2023-03-20T06:26:30;27.48;;;17.73;;
1765;SDS011;880;52.452;8.656;2023-03-20T06:29:02;27.52;;;16.60;;
1765;SDS011;880;52.452;8.656;2023-03-20T06:31:30;26.38;;;17.13;;
1765;SDS011;880;52.452;8.656;2023-03-20T06:33:59;47.47;;;20.13;;
1765;SDS011;880;52.452;8.656;2023-03-20T06:36:26;21.98;;;15.45;;
1765;SDS011;880;52.452;8.656;2023-03-20T06:38:59;22.23;;;15.15;;
1765;SDS011;880;52.452;8.656;2023-03-20T06:41:27;21.35;;;14.18;;
1765;SDS011;880;52.452;8.656;2023-03-20T06:44:03;28.20;;;16.10;;
1765;SDS011;880;52.452;8.656;2023-03-20T06:46:51;18.85;;;14.07;;
1765;SDS011;880;52.452;8.656;2023-03-20T06:49:18;23.70;;;15.02;;
1765;SDS011;880;52.452;8.656;2023-03-20T06:51:45;23.38;;;17.60;;
1765;SDS011;880;52.452;8.656;2023-03-20T06:54:24;27.85;;;16.52;;
1765;SDS011;880;52.452;8.656;2023-03-20T06:56:53;23.88;;;15.80;;
1765;SDS011;880;52.452;8.656;2023-03-20T06:59:20;24.05;;;15.23;;
1765;SDS011;880;52.452;8.656;2023-03-20T07:01:48;24.98;;;14.57;;
1765;SDS011;880;52.452;8.656;2023-03-20T07:04:16;18.20;;;14.40;;
1765;SDS011;880;52.452;8.656;2023-03-20T07:06:50;24.20;;;16.83;;
1765;SDS011;880;52.452;8.656;2023-03-20T07:09:17;26.83;;;18.25;;
1765;SDS011;880;52.452;8.656;2023-03-20T07:11:44;23.33;;;16.55;;
1765;SDS011;880;52.452;8.656;2023-03-20T07:14:12;23.58;;;17.90;;
1765;SDS011;880;52.452;8.656;2023-03-20T07:16:46;24.08;;;18.17;;
1765;SDS011;880;52.452;8.656;2023-03-20T07:19:13;22.75;;;16.20;;
1765;SDS011;880;52.452;8.656;2023-03-20T07:21:43;24.20;;;16.50;;
1765;SDS011;880;52.452;8.656;2023-03-20T07:24:12;26.77;;;17.38;;
1765;SDS011;880;52.452;8.656;2023-03-20T07:26:39;28.05;;;18.10;;
1765;SDS011;880;52.452;8.656;2023-03-20T07:29:07;26.92;;;17.40;;
1765;SDS011;880;52.452;8.656;2023-03-20T07:31:34;24.42;;;17.77;;
1765;SDS011;880;52.452;8.656;2023-03-20T07:34:21;28.90;;;19.00;;
1765;SDS011;880;52.452;8.656;2023-03-20T07:36:49;23.65;;;16.25;;
1765;SDS011;880;52.452;8.656;2023-03-20T07:42:12;22.20;;;16.75;;
1765;SDS011;880;52.452;8.656;2023-03-20T07:44:43;21.98;;;14.82;;
1765;SDS011;880;52.452;8.656;2023-03-20T07:47:10;23.45;;;17.38;;
1765;SDS011;880;52.452;8.656;2023-03-20T07:49:37;24.50;;;17.92;;
1765;SDS011;880;52.452;8.656;2023-03-20T07:52:06;23.33;;;17.00;;
1765;SDS011;880;52.452;8.656;2023-03-20T07:54:34;26.95;;;17.80;;
1765;SDS011;880;52.452;8.656;2023-03-20T07:57:01;24.98;;;18.08;;
1765;SDS011;880;52.452;8.656;2023-03-20T07:59:30;27.35;;;18.08;;
1765;SDS011;880;52.452;8.656;2023-03-20T08:01:57;29.40;;;17.27;;
1765;SDS011;880;52.452;8.656;2023-03-20T08:04:28;23.60;;;15.60;;
1765;SDS011;880;52.452;8.656;2023-03-20T08:07:02;22.35;;;14.90;;
1765;SDS011;880;52.452;8.656;2023-03-20T08:09:29;27.27;;;19.55;;
1765;SDS011;880;52.452;8.656;2023-03-20T08:11:56;24.42;;;17.20;;
1765;SDS011;880;52.452;8.656;2023-03-20T08:14:23;17.23;;;14.60;;
1765;SDS011;880;52.452;8.656;2023-03-20T08:16:50;23.73;;;16.75;;
1765;SDS011;880;52.452;8.656;2023-03-20T08:19:37;22.10;;;15.90;;
1765;SDS011;880;52.452;8.656;2023-03-20T08:22:04;25.95;;;17.42;;
1765;SDS011;880;52.452;8.656;2023-03-20T08:24:32;24.23;;;16.58;;
1765;SDS011;880;52.452;8.656;2023-03-20T08:26:59;25.48;;;17.75;;
1765;SDS011;880;52.452;8.656;2023-03-20T08:29:26;27.83;;;16.88;;
1765;SDS011;880;52.452;8.656;2023-03-20T08:31:53;22.20;;;15.48;;
1765;SDS011;880;52.452;8.656;2023-03-20T08:34:21;14.13;;;12.65;;
1765;SDS011;880;52.452;8.656;2023-03-20T08:36:49;15.23;;;13.35;;
1765;SDS011;880;52.452;8.656;2023-03-20T08:39:17;17.67;;;16.05;;
1765;SDS011;880;52.452;8.656;2023-03-20T08:41:44;23.20;;;15.57;;
1765;SDS011;880;52.452;8.656;2023-03-20T08:44:11;20.67;;;15.63;;
1765;SDS011;880;52.452;8.656;2023-03-20T08:46:38;14.63;;;12.63;;
1765;SDS011;880;52.452;8.656;2023-03-20T08:49:05;18.13;;;15.25;;
1765;SDS011;880;52.452;8.656;2023-03-20T08:51:32;13.10;;;11.88;;
1765;SDS011;880;52.452;8.656;2023-03-20T08:53:59;16.25;;;12.57;;
1765;SDS011;880;52.452;8.656;2023-03-20T08:56:26;13.35;;;11.98;;
1765;SDS011;880;52.452;8.656;2023-03-20T08:58:53;13.13;;;11.82;;
1765;SDS011;880;52.452;8.656;2023-03-20T09:01:21;12.23;;;10.95;;
1765;SDS011;880;52.452;8.656;2023-03-20T09:03:48;14.63;;;13.20;;
1765;SDS011;880;52.452;8.656;2023-03-20T09:06:16;12.05;;;10.90;;
1765;SDS011;880;52.452;8.656;2023-03-20T09:08:43;13.20;;;10.82;;
1765;SDS011;880;52.452;8.656;2023-03-20T09:11:10;12.88;;;11.60;;
1765;SDS011;880;52.452;8.656;2023-03-20T09:13:37;15.20;;;12.23;;
1765;SDS011;880;52.452;8.656;2023-03-20T09:16:04;13.40;;;12.25;;
1765;SDS011;880;52.452;8.656;2023-03-20T09:18:31;13.85;;;12.35;;
1765;SDS011;880;52.452;8.656;2023-03-20T09:20:58;12.50;;;11.27;;
1765;SDS011;880;52.452;8.656;2023-03-20T09:23:26;10.68;;;9.60;;
1765;SDS011;880;52.452;8.656;2023-03-20T09:25:53;11.32;;;10.27;;
1765;SDS011;880;52.452;8.656;2023-03-20T09:28:20;12.32;;;11.18;;
1765;SDS011;880;52.452;8.656;2023-03-20T09:30:47;11.85;;;10.38;;
1765;SDS011;880;52.452;8.656;2023-03-20T09:33:14;11.07;;;9.98;;
1765;SDS011;880;52.452;8.656;2023-03-20T09:35:43;10.25;;;9.48;;
1765;SDS011;880;52.452;8.656;2023-03-20T09:38:11;10.27;;;9.40;;
1765;SDS011;880;52.452;8.656;2023-03-20T09:43:38;11.95;;;10.88;;
1765;SDS011;880;52.452;8.656;2023-03-20T09:49:11;11.40;;;10.45;;
1765;SDS011;880;52.452;8.656;2023-03-20T09:51:59;10.65;;;9.57;;
1765;SDS011;880;52.452;8.656;2023-03-20T09:54:52;12.40;;;11.32;;
1765;SDS011;880;52.452;8.656;2023-03-20T09:57:25;11.88;;;9.88;;
1765;SDS011;880;52.452;8.656;2023-03-20T09:59:58;10.32;;;9.43;;
1765;SDS011;880;52.452;8.656;2023-03-20T10:08:26;10.05;;;9.10;;
1765;SDS011;880;52.452;8.656;2023-03-20T10:19:35;10.82;;;10.02;;
1765;SDS011;880;52.452;8.656;2023-03-20T10:22:15;9.85;;;8.90;;
1765;SDS011;880;52.452;8.656;2023-03-20T10:27:43;11.65;;;10.70;;
1765;SDS011;880;52.452;8.656;2023-03-20T10:39:00;12.07;;;11.02;;
1765;SDS011;880;52.452;8.656;2023-03-20T10:41:53;12.65;;;11.35;;
1765;SDS011;880;52.452;8.656;2023-03-20T10:44:34;9.50;;;8.90;;
1765;SDS011;880;52.452;8.656;2023-03-20T10:47:10;11.15;;;10.32;;
1765;SDS011;880;52.452;8.656;2023-03-20T10:49:42;11.80;;;10.90;;
1765;SDS011;880;52.452;8.656;2023-03-20T10:52:27;10.82;;;10.10;;
1765;SDS011;880;52.452;8.656;2023-03-20T10:55:02;10.65;;;9.95;;
1765;SDS011;880;52.452;8.656;2023-03-20T10:57:41;10.60;;;9.85;;
1765;SDS011;880;52.452;8.656;2023-03-20T11:00:18;11.85;;;10.95;;
1765;SDS011;880;52.452;8.656;2023-03-20T11:02:50;9.77;;;8.88;;
1765;SDS011;880;52.452;8.656;2023-03-20T11:05:28;8.27;;;7.78;;
1765;SDS011;880;52.452;8.656;2023-03-20T11:08:06;8.90;;;8.30;;
1765;SDS011;880;52.452;8.656;2023-03-20T11:10:39;10.85;;;10.00;;
1765;SDS011;880;52.452;8.656;2023-03-20T11:13:15;8.80;;;8.10;;
1765;SDS011;880;52.452;8.656;2023-03-20T11:15:44;10.27;;;9.10;;
1765;SDS011;880;52.452;8.656;2023-03-20T11:18:12;10.13;;;9.10;;
1765;SDS011;880;52.452;8.656;2023-03-20T11:20:54;10.05;;;9.15;;
1765;SDS011;880;52.452;8.656;2023-03-20T11:23:23;9.93;;;9.13;;
1765;SDS011;880;52.452;8.656;2023-03-20T11:26:06;11.57;;;10.93;;
1765;SDS011;880;52.452;8.656;2023-03-20T11:28:51;10.43;;;9.55;;
1765;SDS011;880;52.452;8.656;2023-03-20T11:31:35;12.82;;;11.52;;
1765;SDS011;880;52.452;8.656;2023-03-20T11:36:33;12.18;;;10.90;;
1765;SDS011;880;52.452;8.656;2023-03-20T11:41:40;11.43;;;10.43;;
1765;SDS011;880;52.452;8.656;2023-03-20T11:46:54;12.15;;;11.02;;
1765;SDS011;880;52.452;8.656;2023-03-20T11:49:29;11.02;;;10.05;;
1765;SDS011;880;52.452;8.656;2023-03-20T11:52:13;14.50;;;13.32;;
1765;SDS011;880;52.452;8.656;2023-03-20T11:54:46;11.35;;;10.65;;
1765;SDS011;880;52.452;8.656;2023-03-20T11:57:33;12.50;;;11.23;;
1765;SDS011;880;52.452;8.656;2023-03-20T12:02:42;11.63;;;10.63;;
1765;SDS011;880;52.452;8.656;2023-03-20T12:05:17;11.00;;;10.30;;
1765;SDS011;880;52.452;8.656;2023-03-20T12:08:14;10.73;;;9.93;;
1765;SDS011;880;52.452;8.656;2023-03-20T12:10:53;11.60;;;10.77;;
1765;SDS011;880;52.452;8.656;2023-03-20T12:13:27;10.57;;;9.93;;
1765;SDS011;880;52.452;8.656;2023-03-20T12:16:02;12.10;;;11.23;;
1765;SDS011;880;52.452;8.656;2023-03-20T12:18:37;10.02;;;9.43;;
1765;SDS011;880;52.452;8.656;2023-03-20T12:21:24;11.27;;;10.30;;
1765;SDS011;880;52.452;8.656;2023-03-20T12:24:13;12.20;;;11.40;;
1765;SDS011;880;52.452;8.656;2023-03-20T12:30:09;11.98;;;11.27;;
1765;SDS011;880;52.452;8.656;2023-03-20T12:35:39;11.88;;;10.98;;
1765;SDS011;880;52.452;8.656;2023-03-20T12:38:31;11.02;;;10.32;;
1765;SDS011;880;52.452;8.656;2023-03-20T12:41:07;11.55;;;10.70;;
1765;SDS011;880;52.452;8.656;2023-03-20T12:46:25;10.70;;;10.02;;
1765;SDS011;880;52.452;8.656;2023-03-20T13:00:32;12.05;;;11.35;;
1765;SDS011;880;52.452;8.656;2023-03-20T13:06:55;10.65;;;9.82;;
1765;SDS011;880;52.452;8.656;2023-03-20T13:26:29;10.05;;;9.45;;
1765;SDS011;880;52.452;8.656;2023-03-20T13:29:28;11.07;;;10.23;;
1765;SDS011;880;52.452;8.656;2023-03-20T13:35:18;10.52;;;9.75;;
1765;SDS011;880;52.452;8.656;2023-03-20T13:38:44;10.98;;;10.07;;
1765;SDS011;880;52.452;8.656;2023-03-20T13:41:17;11.13;;;10.35;;
1765;SDS011;880;52.452;8.656;2023-03-20T13:46:21;11.25;;;10.35;;
1765;SDS011;880;52.452;8.656;2023-03-20T13:48:53;11.15;;;10.13;;
1765;SDS011;880;52.452;8.656;2023-03-20T13:57:00;11.05;;;10.13;;
1765;SDS011;880;52.452;8.656;2023-03-20T14:02:37;11.23;;;10.43;;
1765;SDS011;880;52.452;8.656;2023-03-20T14:05:40;10.27;;;9.73;;
1765;SDS011;880;52.452;8.656;2023-03-20T14:08:22;12.35;;;11.25;;
1765;SDS011;880;52.452;8.656;2023-03-20T14:11:05;10.77;;;9.98;;
1765;SDS011;880;52.452;8.656;2023-03-20T14:13:44;11.80;;;10.82;;
1765;SDS011;880;52.452;8.656;2023-03-20T14:16:17;10.55;;;9.93;;
1765;SDS011;880;52.452;8.656;2023-03-20T14:18:49;12.20;;;11.35;;
1765;SDS011;880;52.452;8.656;2023-03-20T14:21:32;12.82;;;11.60;;
1765;SDS011;880;52.452;8.656;2023-03-20T14:24:05;11.65;;;10.75;;
1765;SDS011;880;52.452;8.656;2023-03-20T14:26:37;10.90;;;10.30;;
1765;SDS011;880;52.452;8.656;2023-03-20T14:31:38;12.63;;;11.82;;
1765;SDS011;880;52.452;8.656;2023-03-20T14:36:44;11.10;;;10.27;;
1765;SDS011;880;52.452;8.656;2023-03-20T14:47:59;12.40;;;11.45;;
1765;SDS011;880;52.452;8.656;2023-03-20T14:53:32;10.13;;;9.43;;
1765;SDS011;880;52.452;8.656;2023-03-20T14:56:09;10.02;;;9.18;;
1765;SDS011;880;52.452;8.656;2023-03-20T15:03:58;10.68;;;10.07;;
1765;SDS011;880;52.452;8.656;2023-03-20T15:06:55;10.10;;;9.25;;
1765;SDS011;880;52.452;8.656;2023-03-20T15:09:44;12.07;;;11.18;;
1765;SDS011;880;52.452;8.656;2023-03-20T15:12:16;10.48;;;9.88;;
1765;SDS011;880;52.452;8.656;2023-03-20T15:14:51;10.63;;;9.98;;
1765;SDS011;880;52.452;8.656;2023-03-20T15:17:25;12.93;;;10.30;;
1765;SDS011;880;52.452;8.656;2023-03-20T15:22:47;12.88;;;12.10;;
1765;SDS011;880;52.452;8.656;2023-03-20T15:25:16;11.50;;;10.70;;
1765;SDS011;880;52.452;8.656;2023-03-20T15:30:14;12.38;;;11.25;;
1765;SDS011;880;52.452;8.656;2023-03-20T15:32:45;11.45;;;10.65;;
1765;SDS011;880;52.452;8.656;2023-03-20T15:35:19;11.05;;;10.45;;
1765;SDS011;880;52.452;8.656;2023-03-20T15:37:49;11.43;;;10.57;;
1765;SDS011;880;52.452;8.656;2023-03-20T15:43:20;11.50;;;10.60;;
1765;SDS011;880;52.452;8.656;2023-03-20T15:45:49;11.68;;;10.88;;
1765;SDS011;880;52.452;8.656;2023-03-20T15:48:35;12.23;;;11.43;;
1765;SDS011;880;52.452;8.656;2023-03-20T15:51:02;11.40;;;10.48;;
1765;SDS011;880;52.452;8.656;2023-03-20T15:53:31;11.65;;;10.82;;
1765;SDS011;880;52.452;8.656;2023-03-20T15:56:05;13.70;;;12.48;;
1765;SDS011;880;52.452;8.656;2023-03-20T15:58:43;11.40;;;10.55;;
1765;SDS011;880;52.452;8.656;2023-03-20T16:01:16;11.88;;;11.00;;
1765;SDS011;880;52.452;8.656;2023-03-20T16:03:49;13.18;;;12.25;;
1765;SDS011;880;52.452;8.656;2023-03-20T16:06:19;12.18;;;11.38;;
1765;SDS011;880;52.452;8.656;2023-03-20T16:08:58;11.93;;;11.02;;
1765;SDS011;880;52.452;8.656;2023-03-20T16:11:38;11.95;;;11.05;;
1765;SDS011;880;52.452;8.656;2023-03-20T16:14:12;11.70;;;10.73;;
1765;SDS011;880;52.452;8.656;2023-03-20T16:16:45;11.77;;;10.77;;
1765;SDS011;880;52.452;8.656;2023-03-20T16:19:16;12.65;;;11.40;;
1765;SDS011;880;52.452;8.656;2023-03-20T16:21:47;11.25;;;10.60;;
1765;SDS011;880;52.452;8.656;2023-03-20T16:24:28;12.90;;;11.85;;
1765;SDS011;880;52.452;8.656;2023-03-20T16:27:04;14.13;;;12.80;;
1765;SDS011;880;52.452;8.656;2023-03-20T16:29:35;12.27;;;11.43;;
1765;SDS011;880;52.452;8.656;2023-03-20T16:32:17;11.23;;;10.32;;
1765;SDS011;880;52.452;8.656;2023-03-20T16:35:04;11.35;;;10.13;;
1765;SDS011;880;52.452;8.656;2023-03-20T16:37:54;12.48;;;11.60;;
1765;SDS011;880;52.452;8.656;2023-03-20T16:40:31;10.85;;;9.88;;
1765;SDS011;880;52.452;8.656;2023-03-20T16:43:04;18.10;;;16.33;;
1765;SDS011;880;52.452;8.656;2023-03-20T16:45:44;16.63;;;14.80;;
1765;SDS011;880;52.452;8.656;2023-03-20T16:48:22;9.15;;;8.57;;
1765;SDS011;880;52.452;8.656;2023-03-20T16:50:56;9.05;;;8.60;;
1765;SDS011;880;52.452;8.656;2023-03-20T16:53:55;10.82;;;9.85;;
1765;SDS011;880;52.452;8.656;2023-03-20T16:58:54;11.10;;;10.18;;
1765;SDS011;880;52.452;8.656;2023-03-20T17:01:22;10.52;;;9.82;;
1765;SDS011;880;52.452;8.656;2023-03-20T17:03:56;12.48;;;11.25;;
1765;SDS011;880;52.452;8.656;2023-03-20T17:06:42;23.25;;;18.33;;
1765;SDS011;880;52.452;8.656;2023-03-20T17:09:25;19.02;;;16.88;;
1765;SDS011;880;52.452;8.656;2023-03-20T17:12:00;29.25;;;18.85;;
1765;SDS011;880;52.452;8.656;2023-03-20T17:14:36;12.05;;;11.02;;
1765;SDS011;880;52.452;8.656;2023-03-20T17:17:10;14.88;;;13.50;;
1765;SDS011;880;52.452;8.656;2023-03-20T17:19:45;13.23;;;12.00;;
1765;SDS011;880;52.452;8.656;2023-03-20T17:22:16;13.77;;;12.38;;
1765;SDS011;880;52.452;8.656;2023-03-20T17:24:47;18.08;;;16.08;;
1765;SDS011;880;52.452;8.656;2023-03-20T17:27:16;14.27;;;12.80;;
1765;SDS011;880;52.452;8.656;2023-03-20T17:29:45;18.00;;;16.00;;
1765;SDS011;880;52.452;8.656;2023-03-20T17:32:15;23.73;;;17.60;;
1765;SDS011;880;52.452;8.656;2023-03-20T17:34:47;23.85;;;18.90;;
1765;SDS011;880;52.452;8.656;2023-03-20T17:37:21;18.00;;;16.17;;
1765;SDS011;880;52.452;8.656;2023-03-20T17:39:54;17.20;;;12.05;;
1765;SDS011;880;52.452;8.656;2023-03-20T17:42:22;12.40;;;11.30;;
1765;SDS011;880;52.452;8.656;2023-03-20T17:44:52;13.10;;;11.95;;
1765;SDS011;880;52.452;8.656;2023-03-20T17:47:22;17.55;;;13.98;;
1765;SDS011;880;52.452;8.656;2023-03-20T17:49:52;18.70;;;15.32;;
1765;SDS011;880;52.452;8.656;2023-03-20T17:52:20;30.10;;;23.10;;
1765;SDS011;880;52.452;8.656;2023-03-20T17:54:51;40.47;;;28.52;;
1765;SDS011;880;52.452;8.656;2023-03-20T17:57:34;35.67;;;24.20;;
1765;SDS011;880;52.452;8.656;2023-03-20T18:00:17;32.45;;;23.35;;
1765;SDS011;880;52.452;8.656;2023-03-20T18:02:47;33.80;;;23.35;;
1765;SDS011;880;52.452;8.656;2023-03-20T18:05:15;42.15;;;28.73;;
1765;SDS011;880;52.452;8.656;2023-03-20T18:07:43;32.25;;;24.70;;
1765;SDS011;880;52.452;8.656;2023-03-20T18:10:22;20.52;;;14.32;;
1765;SDS011;880;52.452;8.656;2023-03-20T18:12:57;19.23;;;17.33;;
1765;SDS011;880;52.452;8.656;2023-03-20T18:15:25;22.52;;;17.85;;
1765;SDS011;880;52.452;8.656;2023-03-20T18:17:52;12.63;;;11.38;;
1765;SDS011;880;52.452;8.656;2023-03-20T18:20:29;11.32;;;10.38;;
1765;SDS011;880;52.452;8.656;2023-03-20T18:22:59;16.50;;;14.98;;
1765;SDS011;880;52.452;8.656;2023-03-20T18:25:26;13.48;;;12.15;;
1765;SDS011;880;52.452;8.656;2023-03-20T18:27:54;17.77;;;14.05;;
1765;SDS011;880;52.452;8.656;2023-03-20T18:30:27;18.63;;;15.95;;
1765;SDS011;880;52.452;8.656;2023-03-20T18:33:06;20.17;;;17.17;;
1765;SDS011;880;52.452;8.656;2023-03-20T18:35:34;22.63;;;16.75;;
1765;SDS011;880;52.452;8.656;2023-03-20T18:38:02;25.63;;;18.63;;
1765;SDS011;880;52.452;8.656;2023-03-20T18:40:32;15.82;;;13.30;;
1765;SDS011;880;52.452;8.656;2023-03-20T18:43:02;13.50;;;12.07;;